sensor_id;sensor_type;location;lat;lon;timestamp;P1;durP1;ratioP1;P2;durP2;ratioP2
14554;SDS011;7364;50.870;4.722;2023-08-08T00:01:46;6.43;;;2.70;;
14554;SDS011;7364;50.870;4.722;2023-08-08T00:04:14;5.07;;;3.27;;
14554;SDS011;7364;50.870;4.722;2023-08-08T00:06:42;5.37;;;2.70;;
14554;SDS011;7364;50.870;4.722;2023-08-08T00:09:10;4.57;;;2.53;;
14554;SDS011;7364;50.870;4.722;2023-08-08T00:11:40;4.07;;;2.17;;
14554;SDS011;7364;50.870;4.722;2023-08-08T00:14:08;3.80;;;2.37;;
14554;SDS011;7364;50.870;4.722;2023-08-08T00:16:35;5.60;;;2.97;;
14554;SDS011;7364;50.870;4.722;2023-08-08T00:19:02;4.67;;;2.33;;
14554;SDS011;7364;50.870;4.722;2023-08-08T00:21:30;4.97;;;2.63;;
14554;SDS011;7364;50.870;4.722;2023-08-08T00:23:58;6.33;;;2.20;;
14554;SDS011;7364;50.870;4.722;2023-08-08T00:26:26;5.37;;;2.87;;
14554;SDS011;7364;50.870;4.722;2023-08-08T00:28:53;3.50;;;2.37;;
14554;SDS011;7364;50.870;4.722;2023-08-08T00:31:20;3.87;;;2.50;;
14554;SDS011;7364;50.870;4.722;2023-08-08T00:33:48;4.43;;;2.10;;
14554;SDS011;7364;50.870;4.722;2023-08-08T00:36:15;5.33;;;2.73;;
14554;SDS011;7364;50.870;4.722;2023-08-08T00:38:43;5.70;;;2.67;;
14554;SDS011;7364;50.870;4.722;2023-08-08T00:41:11;7.67;;;2.80;;
14554;SDS011;7364;50.870;4.722;2023-08-08T00:43:39;4.63;;;2.67;;
14554;SDS011;7364;50.870;4.722;2023-08-08T00:46:06;4.50;;;2.33;;
14554;SDS011;7364;50.870;4.722;2023-08-08T00:48:33;7.23;;;2.30;;
14554;SDS011;7364;50.870;4.722;2023-08-08T00:51:01;4.90;;;2.67;;
14554;SDS011;7364;50.870;4.722;2023-08-08T00:53:32;5.83;;;3.00;;
14554;SDS011;7364;50.870;4.722;2023-08-08T00:55:59;5.67;;;2.77;;
14554;SDS011;7364;50.870;4.722;2023-08-08T00:58:28;5.40;;;1.97;;
14554;SDS011;7364;50.870;4.722;2023-08-08T01:00:55;4.40;;;2.13;;
14554;SDS011;7364;50.870;4.722;2023-08-08T01:03:25;5.13;;;2.77;;
14554;SDS011;7364;50.870;4.722;2023-08-08T01:05:58;5.17;;;2.30;;
14554;SDS011;7364;50.870;4.722;2023-08-08T01:08:33;8.07;;;3.30;;
14554;SDS011;7364;50.870;4.722;2023-08-08T01:11:06;7.00;;;2.57;;
14554;SDS011;7364;50.870;4.722;2023-08-08T01:13:35;6.13;;;2.70;;
14554;SDS011;7364;50.870;4.722;2023-08-08T01:16:04;4.53;;;2.63;;
14554;SDS011;7364;50.870;4.722;2023-08-08T01:18:32;6.67;;;3.80;;
14554;SDS011;7364;50.870;4.722;2023-08-08T01:21:00;7.33;;;3.50;;
14554;SDS011;7364;50.870;4.722;2023-08-08T01:23:30;6.57;;;2.90;;
14554;SDS011;7364;50.870;4.722;2023-08-08T01:26:09;9.27;;;2.70;;
14554;SDS011;7364;50.870;4.722;2023-08-08T01:28:37;7.30;;;2.73;;
14554;SDS011;7364;50.870;4.722;2023-08-08T01:31:05;8.60;;;2.73;;
14554;SDS011;7364;50.870;4.722;2023-08-08T01:33:32;5.13;;;2.87;;
14554;SDS011;7364;50.870;4.722;2023-08-08T01:36:00;10.03;;;3.83;;
14554;SDS011;7364;50.870;4.722;2023-08-08T01:38:36;4.47;;;2.60;;
14554;SDS011;7364;50.870;4.722;2023-08-08T01:41:09;4.87;;;2.80;;
14554;SDS011;7364;50.870;4.722;2023-08-08T01:43:36;8.03;;;3.47;;
14554;SDS011;7364;50.870;4.722;2023-08-08T01:46:05;4.70;;;2.90;;
14554;SDS011;7364;50.870;4.722;2023-08-08T01:48:33;4.70;;;3.07;;
14554;SDS011;7364;50.870;4.722;2023-08-08T01:51:00;4.80;;;2.80;;
14554;SDS011;7364;50.870;4.722;2023-08-08T01:53:28;5.20;;;3.30;;
14554;SDS011;7364;50.870;4.722;2023-08-08T01:55:55;6.83;;;3.07;;
14554;SDS011;7364;50.870;4.722;2023-08-08T01:58:24;5.03;;;2.77;;
14554;SDS011;7364;50.870;4.722;2023-08-08T02:00:51;6.73;;;3.00;;
14554;SDS011;7364;50.870;4.722;2023-08-08T02:03:18;9.63;;;3.80;;
14554;SDS011;7364;50.870;4.722;2023-08-08T02:05:46;4.47;;;3.00;;
14554;SDS011;7364;50.870;4.722;2023-08-08T02:08:13;5.63;;;3.37;;
14554;SDS011;7364;50.870;4.722;2023-08-08T02:10:41;7.57;;;3.80;;
14554;SDS011;7364;50.870;4.722;2023-08-08T02:13:08;5.20;;;3.47;;
14554;SDS011;7364;50.870;4.722;2023-08-08T02:15:37;11.03;;;3.77;;
14554;SDS011;7364;50.870;4.722;2023-08-08T02:18:04;5.83;;;3.43;;
14554;SDS011;7364;50.870;4.722;2023-08-08T02:20:34;11.90;;;3.90;;
14554;SDS011;7364;50.870;4.722;2023-08-08T02:23:02;13.13;;;3.53;;
14554;SDS011;7364;50.870;4.722;2023-08-08T02:25:29;6.87;;;3.90;;
14554;SDS011;7364;50.870;4.722;2023-08-08T02:27:56;8.93;;;3.60;;
14554;SDS011;7364;50.870;4.722;2023-08-08T02:30:24;7.90;;;3.17;;
14554;SDS011;7364;50.870;4.722;2023-08-08T02:32:52;7.50;;;3.87;;
14554;SDS011;7364;50.870;4.722;2023-08-08T02:35:20;12.43;;;3.80;;
14554;SDS011;7364;50.870;4.722;2023-08-08T02:37:48;8.87;;;3.53;;
14554;SDS011;7364;50.870;4.722;2023-08-08T02:40:15;7.83;;;3.60;;
14554;SDS011;7364;50.870;4.722;2023-08-08T02:42:43;7.37;;;4.00;;
14554;SDS011;7364;50.870;4.722;2023-08-08T02:45:10;6.23;;;3.03;;
14554;SDS011;7364;50.870;4.722;2023-08-08T02:47:37;10.40;;;3.53;;
14554;SDS011;7364;50.870;4.722;2023-08-08T02:50:07;10.10;;;3.80;;
14554;SDS011;7364;50.870;4.722;2023-08-08T02:52:34;11.23;;;4.10;;
14554;SDS011;7364;50.870;4.722;2023-08-08T02:55:01;9.33;;;3.97;;
14554;SDS011;7364;50.870;4.722;2023-08-08T02:57:29;7.20;;;3.63;;
14554;SDS011;7364;50.870;4.722;2023-08-08T02:59:57;13.87;;;4.23;;
14554;SDS011;7364;50.870;4.722;2023-08-08T03:02:24;8.13;;;4.20;;
14554;SDS011;7364;50.870;4.722;2023-08-08T03:04:52;8.43;;;4.03;;
14554;SDS011;7364;50.870;4.722;2023-08-08T03:07:20;11.23;;;3.53;;
14554;SDS011;7364;50.870;4.722;2023-08-08T03:09:48;9.53;;;3.80;;
14554;SDS011;7364;50.870;4.722;2023-08-08T03:12:15;9.10;;;3.93;;
14554;SDS011;7364;50.870;4.722;2023-08-08T03:14:42;15.67;;;4.43;;
14554;SDS011;7364;50.870;4.722;2023-08-08T03:17:10;7.73;;;4.03;;
14554;SDS011;7364;50.870;4.722;2023-08-08T03:19:37;4.97;;;3.40;;
14554;SDS011;7364;50.870;4.722;2023-08-08T03:22:04;7.63;;;3.57;;
14554;SDS011;7364;50.870;4.722;2023-08-08T03:24:33;8.70;;;4.10;;
14554;SDS011;7364;50.870;4.722;2023-08-08T03:27:00;9.57;;;5.30;;
14554;SDS011;7364;50.870;4.722;2023-08-08T03:29:28;8.13;;;4.10;;
14554;SDS011;7364;50.870;4.722;2023-08-08T03:31:55;9.73;;;4.00;;
14554;SDS011;7364;50.870;4.722;2023-08-08T03:34:22;9.23;;;4.20;;
14554;SDS011;7364;50.870;4.722;2023-08-08T03:36:50;8.43;;;4.20;;
14554;SDS011;7364;50.870;4.722;2023-08-08T03:39:17;7.97;;;3.63;;
14554;SDS011;7364;50.870;4.722;2023-08-08T03:41:46;7.10;;;3.77;;
14554;SDS011;7364;50.870;4.722;2023-08-08T03:44:13;13.03;;;4.57;;
14554;SDS011;7364;50.870;4.722;2023-08-08T03:46:40;9.43;;;4.13;;
14554;SDS011;7364;50.870;4.722;2023-08-08T03:49:08;9.47;;;3.60;;
14554;SDS011;7364;50.870;4.722;2023-08-08T03:51:35;12.00;;;4.60;;
14554;SDS011;7364;50.870;4.722;2023-08-08T03:54:03;8.07;;;3.97;;
14554;SDS011;7364;50.870;4.722;2023-08-08T03:56:30;9.23;;;4.53;;
14554;SDS011;7364;50.870;4.722;2023-08-08T03:59:00;15.93;;;4.77;;
14554;SDS011;7364;50.870;4.722;2023-08-08T04:01:27;11.03;;;3.97;;
14554;SDS011;7364;50.870;4.722;2023-08-08T04:03:54;6.37;;;3.37;;
14554;SDS011;7364;50.870;4.722;2023-08-08T04:06:22;15.70;;;4.20;;
14554;SDS011;7364;50.870;4.722;2023-08-08T04:08:49;9.23;;;4.50;;
14554;SDS011;7364;50.870;4.722;2023-08-08T04:11:16;10.90;;;5.03;;
14554;SDS011;7364;50.870;4.722;2023-08-08T04:13:44;12.20;;;5.40;;
14554;SDS011;7364;50.870;4.722;2023-08-08T04:16:12;11.93;;;5.47;;
14554;SDS011;7364;50.870;4.722;2023-08-08T04:18:40;8.67;;;5.07;;
14554;SDS011;7364;50.870;4.722;2023-08-08T04:21:07;14.20;;;5.03;;
14554;SDS011;7364;50.870;4.722;2023-08-08T04:23:35;9.93;;;5.20;;
14554;SDS011;7364;50.870;4.722;2023-08-08T04:26:02;10.50;;;5.03;;
14554;SDS011;7364;50.870;4.722;2023-08-08T04:28:30;14.17;;;4.90;;
14554;SDS011;7364;50.870;4.722;2023-08-08T04:30:57;7.90;;;4.50;;
14554;SDS011;7364;50.870;4.722;2023-08-08T04:33:26;11.07;;;5.17;;
14554;SDS011;7364;50.870;4.722;2023-08-08T04:35:53;10.47;;;5.57;;
14554;SDS011;7364;50.870;4.722;2023-08-08T04:38:20;12.30;;;5.00;;
14554;SDS011;7364;50.870;4.722;2023-08-08T04:40:48;11.10;;;4.50;;
14554;SDS011;7364;50.870;4.722;2023-08-08T04:43:15;15.27;;;4.97;;
14554;SDS011;7364;50.870;4.722;2023-08-08T04:45:42;10.13;;;5.47;;
14554;SDS011;7364;50.870;4.722;2023-08-08T04:48:10;11.33;;;5.23;;
14554;SDS011;7364;50.870;4.722;2023-08-08T04:50:38;13.73;;;5.00;;
14554;SDS011;7364;50.870;4.722;2023-08-08T04:53:06;8.93;;;4.50;;
14554;SDS011;7364;50.870;4.722;2023-08-08T04:55:33;9.40;;;4.87;;
14554;SDS011;7364;50.870;4.722;2023-08-08T04:58:01;11.33;;;5.50;;
14554;SDS011;7364;50.870;4.722;2023-08-08T05:00:28;11.87;;;5.03;;
14554;SDS011;7364;50.870;4.722;2023-08-08T05:02:55;11.10;;;4.77;;
14554;SDS011;7364;50.870;4.722;2023-08-08T05:05:23;10.50;;;4.70;;
14554;SDS011;7364;50.870;4.722;2023-08-08T05:07:51;9.83;;;5.50;;
14554;SDS011;7364;50.870;4.722;2023-08-08T05:10:19;16.90;;;4.83;;
14554;SDS011;7364;50.870;4.722;2023-08-08T05:12:46;13.07;;;4.40;;
14554;SDS011;7364;50.870;4.722;2023-08-08T05:15:13;9.80;;;5.07;;
14554;SDS011;7364;50.870;4.722;2023-08-08T05:17:41;12.30;;;4.93;;
14554;SDS011;7364;50.870;4.722;2023-08-08T05:20:09;8.20;;;4.70;;
14554;SDS011;7364;50.870;4.722;2023-08-08T05:22:37;13.33;;;4.67;;
14554;SDS011;7364;50.870;4.722;2023-08-08T05:25:06;7.77;;;4.33;;
14554;SDS011;7364;50.870;4.722;2023-08-08T05:27:34;13.70;;;4.50;;
14554;SDS011;7364;50.870;4.722;2023-08-08T05:30:01;14.03;;;4.67;;
14554;SDS011;7364;50.870;4.722;2023-08-08T05:32:29;9.70;;;4.07;;
14554;SDS011;7364;50.870;4.722;2023-08-08T05:34:57;9.00;;;4.57;;
14554;SDS011;7364;50.870;4.722;2023-08-08T05:37:25;7.80;;;4.27;;
14554;SDS011;7364;50.870;4.722;2023-08-08T05:39:53;7.80;;;4.23;;
14554;SDS011;7364;50.870;4.722;2023-08-08T05:42:22;9.60;;;4.87;;
14554;SDS011;7364;50.870;4.722;2023-08-08T05:44:49;8.13;;;3.70;;
14554;SDS011;7364;50.870;4.722;2023-08-08T05:47:16;12.17;;;4.20;;
14554;SDS011;7364;50.870;4.722;2023-08-08T05:49:44;16.37;;;4.83;;
14554;SDS011;7364;50.870;4.722;2023-08-08T05:52:11;12.60;;;3.70;;
14554;SDS011;7364;50.870;4.722;2023-08-08T05:54:38;6.30;;;3.43;;
14554;SDS011;7364;50.870;4.722;2023-08-08T05:57:06;7.40;;;3.47;;
14554;SDS011;7364;50.870;4.722;2023-08-08T05:59:35;9.53;;;4.43;;
14554;SDS011;7364;50.870;4.722;2023-08-08T06:02:02;10.30;;;3.60;;
14554;SDS011;7364;50.870;4.722;2023-08-08T06:04:29;8.40;;;4.27;;
14554;SDS011;7364;50.870;4.722;2023-08-08T06:06:57;11.53;;;3.77;;
14554;SDS011;7364;50.870;4.722;2023-08-08T06:09:24;7.87;;;3.07;;
14554;SDS011;7364;50.870;4.722;2023-08-08T06:11:53;10.97;;;3.97;;
14554;SDS011;7364;50.870;4.722;2023-08-08T06:14:20;12.80;;;3.90;;
14554;SDS011;7364;50.870;4.722;2023-08-08T06:16:49;8.17;;;4.03;;
14554;SDS011;7364;50.870;4.722;2023-08-08T06:19:16;11.67;;;3.50;;
14554;SDS011;7364;50.870;4.722;2023-08-08T06:21:45;11.23;;;9.23;;
14554;SDS011;7364;50.870;4.722;2023-08-08T06:24:14;7.17;;;4.33;;
14554;SDS011;7364;50.870;4.722;2023-08-08T06:26:41;12.27;;;4.33;;
14554;SDS011;7364;50.870;4.722;2023-08-08T06:29:08;6.57;;;3.63;;
14554;SDS011;7364;50.870;4.722;2023-08-08T06:31:36;6.90;;;3.60;;
14554;SDS011;7364;50.870;4.722;2023-08-08T06:34:04;7.83;;;4.00;;
14554;SDS011;7364;50.870;4.722;2023-08-08T06:36:32;8.77;;;3.77;;
14554;SDS011;7364;50.870;4.722;2023-08-08T06:38:59;9.27;;;3.20;;
14554;SDS011;7364;50.870;4.722;2023-08-08T06:41:27;7.63;;;3.53;;
14554;SDS011;7364;50.870;4.722;2023-08-08T06:43:54;9.03;;;3.73;;
14554;SDS011;7364;50.870;4.722;2023-08-08T06:46:21;6.87;;;2.97;;
14554;SDS011;7364;50.870;4.722;2023-08-08T06:48:50;8.90;;;4.10;;
14554;SDS011;7364;50.870;4.722;2023-08-08T06:51:22;7.90;;;3.93;;
14554;SDS011;7364;50.870;4.722;2023-08-08T06:53:50;7.07;;;3.23;;
14554;SDS011;7364;50.870;4.722;2023-08-08T06:56:17;10.83;;;3.97;;
14554;SDS011;7364;50.870;4.722;2023-08-08T06:58:44;10.97;;;4.23;;
14554;SDS011;7364;50.870;4.722;2023-08-08T07:01:12;8.17;;;3.30;;
14554;SDS011;7364;50.870;4.722;2023-08-08T07:03:39;8.90;;;3.40;;
14554;SDS011;7364;50.870;4.722;2023-08-08T07:06:08;7.40;;;3.50;;
14554;SDS011;7364;50.870;4.722;2023-08-08T07:08:37;9.60;;;3.03;;
14554;SDS011;7364;50.870;4.722;2023-08-08T07:11:05;8.47;;;3.50;;
14554;SDS011;7364;50.870;4.722;2023-08-08T07:13:32;8.10;;;3.93;;
14554;SDS011;7364;50.870;4.722;2023-08-08T07:16:00;9.53;;;3.73;;
14554;SDS011;7364;50.870;4.722;2023-08-08T07:18:27;5.40;;;3.13;;
14554;SDS011;7364;50.870;4.722;2023-08-08T07:20:54;10.20;;;3.97;;
14554;SDS011;7364;50.870;4.722;2023-08-08T07:23:22;6.03;;;3.43;;
14554;SDS011;7364;50.870;4.722;2023-08-08T07:25:51;6.60;;;3.27;;
14554;SDS011;7364;50.870;4.722;2023-08-08T07:28:18;7.00;;;2.77;;
14554;SDS011;7364;50.870;4.722;2023-08-08T07:30:46;5.33;;;3.40;;
14554;SDS011;7364;50.870;4.722;2023-08-08T07:33:13;14.57;;;3.10;;
14554;SDS011;7364;50.870;4.722;2023-08-08T07:35:40;5.47;;;2.77;;
14554;SDS011;7364;50.870;4.722;2023-08-08T07:38:08;7.77;;;2.73;;
14554;SDS011;7364;50.870;4.722;2023-08-08T07:40:35;6.20;;;2.57;;
14554;SDS011;7364;50.870;4.722;2023-08-08T07:43:04;9.73;;;3.10;;
14554;SDS011;7364;50.870;4.722;2023-08-08T07:45:31;9.03;;;3.23;;
14554;SDS011;7364;50.870;4.722;2023-08-08T07:47:59;8.57;;;2.93;;
14554;SDS011;7364;50.870;4.722;2023-08-08T07:50:26;6.87;;;3.00;;
14554;SDS011;7364;50.870;4.722;2023-08-08T07:52:53;5.43;;;2.87;;
14554;SDS011;7364;50.870;4.722;2023-08-08T07:55:20;6.57;;;3.67;;
14554;SDS011;7364;50.870;4.722;2023-08-08T07:57:48;7.07;;;3.07;;
14554;SDS011;7364;50.870;4.722;2023-08-08T08:00:17;5.53;;;3.00;;
14554;SDS011;7364;50.870;4.722;2023-08-08T08:02:46;10.07;;;3.63;;
14554;SDS011;7364;50.870;4.722;2023-08-08T08:05:13;6.60;;;3.70;;
14554;SDS011;7364;50.870;4.722;2023-08-08T08:07:40;11.87;;;4.37;;
14554;SDS011;7364;50.870;4.722;2023-08-08T08:10:08;11.27;;;4.20;;
14554;SDS011;7364;50.870;4.722;2023-08-08T08:12:38;12.60;;;3.97;;
14554;SDS011;7364;50.870;4.722;2023-08-08T08:15:07;5.73;;;3.53;;
14554;SDS011;7364;50.870;4.722;2023-08-08T08:17:37;5.47;;;3.10;;
14554;SDS011;7364;50.870;4.722;2023-08-08T08:20:05;8.60;;;4.20;;
14554;SDS011;7364;50.870;4.722;2023-08-08T08:22:36;6.10;;;3.67;;
14554;SDS011;7364;50.870;4.722;2023-08-08T08:25:05;6.33;;;3.87;;
14554;SDS011;7364;50.870;4.722;2023-08-08T08:27:35;6.20;;;3.60;;
14554;SDS011;7364;50.870;4.722;2023-08-08T08:30:02;7.00;;;3.77;;
14554;SDS011;7364;50.870;4.722;2023-08-08T08:32:31;10.23;;;4.37;;
14554;SDS011;7364;50.870;4.722;2023-08-08T08:35:01;9.50;;;4.57;;
14554;SDS011;7364;50.870;4.722;2023-08-08T08:37:31;11.03;;;4.43;;
14554;SDS011;7364;50.870;4.722;2023-08-08T08:39:59;11.63;;;4.37;;
14554;SDS011;7364;50.870;4.722;2023-08-08T08:42:26;6.87;;;3.40;;
14554;SDS011;7364;50.870;4.722;2023-08-08T08:44:55;9.33;;;3.97;;
14554;SDS011;7364;50.870;4.722;2023-08-08T08:47:24;7.20;;;3.93;;
14554;SDS011;7364;50.870;4.722;2023-08-08T08:49:52;8.23;;;3.83;;
14554;SDS011;7364;50.870;4.722;2023-08-08T08:52:21;7.70;;;3.33;;
14554;SDS011;7364;50.870;4.722;2023-08-08T08:54:49;7.00;;;3.47;;
14554;SDS011;7364;50.870;4.722;2023-08-08T08:57:17;6.57;;;3.20;;
14554;SDS011;7364;50.870;4.722;2023-08-08T08:59:44;9.23;;;3.87;;
14554;SDS011;7364;50.870;4.722;2023-08-08T09:02:12;10.50;;;3.40;;
14554;SDS011;7364;50.870;4.722;2023-08-08T09:04:39;4.83;;;3.03;;
14554;SDS011;7364;50.870;4.722;2023-08-08T09:07:07;5.70;;;3.53;;
14554;SDS011;7364;50.870;4.722;2023-08-08T09:09:38;5.87;;;3.13;;
14554;SDS011;7364;50.870;4.722;2023-08-08T09:12:05;10.47;;;3.63;;
14554;SDS011;7364;50.870;4.722;2023-08-08T09:14:33;6.27;;;3.30;;
14554;SDS011;7364;50.870;4.722;2023-08-08T09:17:09;10.97;;;3.33;;
14554;SDS011;7364;50.870;4.722;2023-08-08T09:19:38;7.07;;;2.90;;
14554;SDS011;7364;50.870;4.722;2023-08-08T09:22:10;6.97;;;3.33;;
14554;SDS011;7364;50.870;4.722;2023-08-08T09:24:40;5.47;;;3.30;;
14554;SDS011;7364;50.870;4.722;2023-08-08T09:27:08;11.87;;;3.70;;
14554;SDS011;7364;50.870;4.722;2023-08-08T09:29:39;5.23;;;2.50;;
14554;SDS011;7364;50.870;4.722;2023-08-08T09:32:08;7.43;;;3.67;;
14554;SDS011;7364;50.870;4.722;2023-08-08T09:34:36;6.13;;;3.80;;
14554;SDS011;7364;50.870;4.722;2023-08-08T09:37:03;3.20;;;2.43;;
14554;SDS011;7364;50.870;4.722;2023-08-08T09:39:32;6.80;;;3.13;;
14554;SDS011;7364;50.870;4.722;2023-08-08T09:42:02;8.43;;;3.60;;
14554;SDS011;7364;50.870;4.722;2023-08-08T09:44:30;7.17;;;3.20;;
14554;SDS011;7364;50.870;4.722;2023-08-08T09:47:00;8.30;;;3.67;;
14554;SDS011;7364;50.870;4.722;2023-08-08T09:49:28;8.17;;;3.33;;
14554;SDS011;7364;50.870;4.722;2023-08-08T09:51:57;5.97;;;3.07;;
14554;SDS011;7364;50.870;4.722;2023-08-08T09:54:25;5.67;;;2.70;;
14554;SDS011;7364;50.870;4.722;2023-08-08T09:56:53;7.13;;;2.97;;
14554;SDS011;7364;50.870;4.722;2023-08-08T09:59:23;5.63;;;2.90;;
14554;SDS011;7364;50.870;4.722;2023-08-08T10:01:51;5.23;;;2.73;;
14554;SDS011;7364;50.870;4.722;2023-08-08T10:04:20;7.47;;;3.30;;
14554;SDS011;7364;50.870;4.722;2023-08-08T10:06:48;6.90;;;2.93;;
14554;SDS011;7364;50.870;4.722;2023-08-08T10:09:15;6.67;;;2.90;;
14554;SDS011;7364;50.870;4.722;2023-08-08T10:11:44;5.77;;;2.83;;
14554;SDS011;7364;50.870;4.722;2023-08-08T10:14:12;15.00;;;3.30;;
14554;SDS011;7364;50.870;4.722;2023-08-08T10:16:43;5.47;;;2.87;;
14554;SDS011;7364;50.870;4.722;2023-08-08T10:19:10;6.40;;;3.43;;
14554;SDS011;7364;50.870;4.722;2023-08-08T10:21:41;4.90;;;2.70;;
14554;SDS011;7364;50.870;4.722;2023-08-08T10:24:10;5.90;;;3.00;;
14554;SDS011;7364;50.870;4.722;2023-08-08T10:26:51;4.73;;;2.37;;
14554;SDS011;7364;50.870;4.722;2023-08-08T10:29:20;6.83;;;3.13;;
14554;SDS011;7364;50.870;4.722;2023-08-08T10:31:58;6.47;;;3.30;;
14554;SDS011;7364;50.870;4.722;2023-08-08T10:34:37;3.90;;;2.13;;
14554;SDS011;7364;50.870;4.722;2023-08-08T10:37:06;5.43;;;2.23;;
14554;SDS011;7364;50.870;4.722;2023-08-08T10:39:36;10.50;;;3.20;;
14554;SDS011;7364;50.870;4.722;2023-08-08T10:42:17;4.50;;;2.40;;
14554;SDS011;7364;50.870;4.722;2023-08-08T10:44:50;6.40;;;2.80;;
14554;SDS011;7364;50.870;4.722;2023-08-08T10:47:22;7.47;;;2.70;;
14554;SDS011;7364;50.870;4.722;2023-08-08T10:49:57;5.30;;;2.53;;
14554;SDS011;7364;50.870;4.722;2023-08-08T10:52:26;4.43;;;2.47;;
14554;SDS011;7364;50.870;4.722;2023-08-08T10:54:53;5.10;;;2.37;;
14554;SDS011;7364;50.870;4.722;2023-08-08T10:57:24;8.80;;;2.60;;
14554;SDS011;7364;50.870;4.722;2023-08-08T10:59:51;8.23;;;3.13;;
14554;SDS011;7364;50.870;4.722;2023-08-08T11:02:20;5.17;;;2.53;;
14554;SDS011;7364;50.870;4.722;2023-08-08T11:04:49;6.13;;;2.57;;
14554;SDS011;7364;50.870;4.722;2023-08-08T11:07:16;5.27;;;2.50;;
14554;SDS011;7364;50.870;4.722;2023-08-08T11:09:44;4.27;;;2.60;;
14554;SDS011;7364;50.870;4.722;2023-08-08T11:12:14;3.53;;;2.30;;
14554;SDS011;7364;50.870;4.722;2023-08-08T11:14:42;3.83;;;2.50;;
14554;SDS011;7364;50.870;4.722;2023-08-08T11:17:09;5.00;;;2.73;;
14554;SDS011;7364;50.870;4.722;2023-08-08T11:19:39;3.97;;;2.37;;
14554;SDS011;7364;50.870;4.722;2023-08-08T11:22:10;4.93;;;2.87;;
14554;SDS011;7364;50.870;4.722;2023-08-08T11:24:37;7.13;;;2.63;;
14554;SDS011;7364;50.870;4.722;2023-08-08T11:27:05;5.37;;;1.93;;
14554;SDS011;7364;50.870;4.722;2023-08-08T11:29:32;5.27;;;2.10;;
14554;SDS011;7364;50.870;4.722;2023-08-08T11:32:00;5.13;;;2.70;;
14554;SDS011;7364;50.870;4.722;2023-08-08T11:34:29;8.23;;;2.67;;
14554;SDS011;7364;50.870;4.722;2023-08-08T11:36:58;3.80;;;2.07;;
14554;SDS011;7364;50.870;4.722;2023-08-08T11:39:28;5.30;;;2.50;;
14554;SDS011;7364;50.870;4.722;2023-08-08T11:41:56;9.27;;;2.63;;
14554;SDS011;7364;50.870;4.722;2023-08-08T11:44:23;3.27;;;2.03;;
14554;SDS011;7364;50.870;4.722;2023-08-08T11:46:51;5.10;;;2.13;;
14554;SDS011;7364;50.870;4.722;2023-08-08T11:49:18;5.73;;;2.20;;
14554;SDS011;7364;50.870;4.722;2023-08-08T11:51:46;5.43;;;1.80;;
14554;SDS011;7364;50.870;4.722;2023-08-08T11:54:13;3.27;;;1.53;;
14554;SDS011;7364;50.870;4.722;2023-08-08T11:56:43;3.37;;;1.73;;
14554;SDS011;7364;50.870;4.722;2023-08-08T11:59:10;4.70;;;2.00;;
14554;SDS011;7364;50.870;4.722;2023-08-08T12:01:38;4.20;;;1.97;;
14554;SDS011;7364;50.870;4.722;2023-08-08T12:04:07;4.20;;;2.00;;
14554;SDS011;7364;50.870;4.722;2023-08-08T12:06:36;2.17;;;1.43;;
14554;SDS011;7364;50.870;4.722;2023-08-08T12:09:05;3.40;;;1.73;;
14554;SDS011;7364;50.870;4.722;2023-08-08T12:11:34;4.63;;;2.00;;
14554;SDS011;7364;50.870;4.722;2023-08-08T12:14:04;4.33;;;2.43;;
14554;SDS011;7364;50.870;4.722;2023-08-08T12:16:34;3.50;;;1.67;;
14554;SDS011;7364;50.870;4.722;2023-08-08T12:19:04;2.43;;;1.37;;
14554;SDS011;7364;50.870;4.722;2023-08-08T12:21:36;3.17;;;1.57;;
14554;SDS011;7364;50.870;4.722;2023-08-08T12:24:03;5.00;;;1.40;;
14554;SDS011;7364;50.870;4.722;2023-08-08T12:26:31;2.83;;;1.80;;
14554;SDS011;7364;50.870;4.722;2023-08-08T12:28:58;6.03;;;1.87;;
14554;SDS011;7364;50.870;4.722;2023-08-08T12:31:27;2.93;;;1.80;;
14554;SDS011;7364;50.870;4.722;2023-08-08T12:33:54;2.50;;;1.60;;
14554;SDS011;7364;50.870;4.722;2023-08-08T12:36:22;6.13;;;1.50;;
14554;SDS011;7364;50.870;4.722;2023-08-08T12:38:49;3.37;;;1.60;;
14554;SDS011;7364;50.870;4.722;2023-08-08T12:41:17;3.47;;;1.53;;
14554;SDS011;7364;50.870;4.722;2023-08-08T12:43:44;2.43;;;1.37;;
14554;SDS011;7364;50.870;4.722;2023-08-08T12:46:12;3.37;;;1.47;;
14554;SDS011;7364;50.870;4.722;2023-08-08T12:48:40;3.17;;;1.70;;
14554;SDS011;7364;50.870;4.722;2023-08-08T12:51:08;2.33;;;1.40;;
14554;SDS011;7364;50.870;4.722;2023-08-08T12:53:36;4.90;;;1.60;;
14554;SDS011;7364;50.870;4.722;2023-08-08T12:56:03;4.03;;;1.77;;
14554;SDS011;7364;50.870;4.722;2023-08-08T12:58:30;5.27;;;1.87;;
14554;SDS011;7364;50.870;4.722;2023-08-08T13:00:58;3.33;;;1.97;;
14554;SDS011;7364;50.870;4.722;2023-08-08T13:03:25;3.83;;;2.23;;
14554;SDS011;7364;50.870;4.722;2023-08-08T13:05:54;3.90;;;1.93;;
14554;SDS011;7364;50.870;4.722;2023-08-08T13:08:21;5.60;;;1.43;;
14554;SDS011;7364;50.870;4.722;2023-08-08T13:10:49;5.27;;;1.47;;
14554;SDS011;7364;50.870;4.722;2023-08-08T13:13:16;4.23;;;1.97;;
14554;SDS011;7364;50.870;4.722;2023-08-08T13:15:43;3.47;;;1.73;;
14554;SDS011;7364;50.870;4.722;2023-08-08T13:18:11;3.27;;;1.70;;
14554;SDS011;7364;50.870;4.722;2023-08-08T13:20:38;3.90;;;1.70;;
14554;SDS011;7364;50.870;4.722;2023-08-08T13:23:07;4.50;;;1.50;;
14554;SDS011;7364;50.870;4.722;2023-08-08T13:25:35;3.00;;;1.50;;
14554;SDS011;7364;50.870;4.722;2023-08-08T13:28:02;3.60;;;1.80;;
14554;SDS011;7364;50.870;4.722;2023-08-08T13:30:30;5.07;;;2.00;;
14554;SDS011;7364;50.870;4.722;2023-08-08T13:32:58;4.20;;;1.80;;
14554;SDS011;7364;50.870;4.722;2023-08-08T13:35:25;4.57;;;2.13;;
14554;SDS011;7364;50.870;4.722;2023-08-08T13:37:53;5.50;;;1.90;;
14554;SDS011;7364;50.870;4.722;2023-08-08T13:40:22;2.67;;;1.73;;
14554;SDS011;7364;50.870;4.722;2023-08-08T13:42:49;3.50;;;1.83;;
14554;SDS011;7364;50.870;4.722;2023-08-08T13:45:17;4.77;;;1.63;;
14554;SDS011;7364;50.870;4.722;2023-08-08T13:47:45;5.87;;;2.07;;
14554;SDS011;7364;50.870;4.722;2023-08-08T13:50:13;2.03;;;1.43;;
14554;SDS011;7364;50.870;4.722;2023-08-08T13:52:40;2.80;;;1.40;;
14554;SDS011;7364;50.870;4.722;2023-08-08T13:55:08;2.93;;;1.30;;
14554;SDS011;7364;50.870;4.722;2023-08-08T13:57:37;6.83;;;1.50;;
14554;SDS011;7364;50.870;4.722;2023-08-08T14:00:05;2.03;;;1.33;;
14554;SDS011;7364;50.870;4.722;2023-08-08T14:02:36;3.37;;;1.60;;
14554;SDS011;7364;50.870;4.722;2023-08-08T14:05:04;2.20;;;1.43;;
14554;SDS011;7364;50.870;4.722;2023-08-08T14:07:31;3.80;;;1.70;;
14554;SDS011;7364;50.870;4.722;2023-08-08T14:10:00;3.10;;;1.67;;
14554;SDS011;7364;50.870;4.722;2023-08-08T14:12:29;3.67;;;1.60;;
14554;SDS011;7364;50.870;4.722;2023-08-08T14:14:58;2.70;;;1.40;;
14554;SDS011;7364;50.870;4.722;2023-08-08T14:17:25;1.67;;;1.27;;
14554;SDS011;7364;50.870;4.722;2023-08-08T14:19:52;4.77;;;1.53;;
14554;SDS011;7364;50.870;4.722;2023-08-08T14:22:20;2.47;;;1.33;;
14554;SDS011;7364;50.870;4.722;2023-08-08T14:24:47;4.47;;;1.80;;
14554;SDS011;7364;50.870;4.722;2023-08-08T14:27:14;2.43;;;1.10;;
14554;SDS011;7364;50.870;4.722;2023-08-08T14:29:42;3.07;;;1.23;;
14554;SDS011;7364;50.870;4.722;2023-08-08T14:32:11;1.60;;;1.20;;
14554;SDS011;7364;50.870;4.722;2023-08-08T14:34:39;4.23;;;1.40;;
14554;SDS011;7364;50.870;4.722;2023-08-08T14:37:06;3.00;;;1.90;;
14554;SDS011;7364;50.870;4.722;2023-08-08T14:39:34;2.47;;;1.47;;
14554;SDS011;7364;50.870;4.722;2023-08-08T14:42:01;3.53;;;1.33;;
14554;SDS011;7364;50.870;4.722;2023-08-08T14:44:29;4.23;;;1.30;;
14554;SDS011;7364;50.870;4.722;2023-08-08T14:46:56;1.83;;;1.53;;
14554;SDS011;7364;50.870;4.722;2023-08-08T14:49:25;6.57;;;1.80;;
14554;SDS011;7364;50.870;4.722;2023-08-08T14:51:52;2.77;;;1.50;;
14554;SDS011;7364;50.870;4.722;2023-08-08T14:54:20;5.07;;;1.50;;
14554;SDS011;7364;50.870;4.722;2023-08-08T14:56:47;2.57;;;1.57;;
14554;SDS011;7364;50.870;4.722;2023-08-08T14:59:14;3.13;;;1.30;;
14554;SDS011;7364;50.870;4.722;2023-08-08T15:01:41;4.20;;;1.83;;
14554;SDS011;7364;50.870;4.722;2023-08-08T15:04:09;2.57;;;1.57;;